KIAD/IAD METAR and TAF weather

Enter ICAO airport designator
Station Type Date Time Source
KIAD METAR 2019/12/06 13:52 UTC NOAA

KIAD 061352Z 18008KT 10SM SCT140 BKN180 BKN250 04/M03 A3014 RMK AO2 SLP208 T00391033


Station Type Date Time Source
KIAD Decoded METAR 2019/12/06 13:52 UTC NOAA

DULLES INTERNATIONAL AIRPORT, VA, United States (KIAD) 38-56N 077-27W 93M
Dec 06, 2019 - 08:52 AM EST / 2019.12.06 1352 UTC
Wind: from the S (180 degrees) at 9 MPH (8 KT):0
Visibility: 10 mile(s):0
Sky conditions: mostly cloudy
Temperature: 39.0 F (3.9 C)
Dew Point: 26.1 F (-3.3 C)
Relative Humidity: 59%
Pressure (altimeter): 30.14 in. Hg (1020 hPa)
ob: KIAD 061352Z 18008KT 10SM SCT140 BKN180 BKN250 04/M03 A3014 RMK AO2 SLP208 T00391033
cycle: 14

Station Type Date Time Source
KIAD TAF 2019/12/06 12:30 UTC NOAA

TAF KIAD 061127Z 0612/0718 18005KT P6SM SCT250
FM061600 20010G17KT P6SM BKN090
FM062200 22006KT P6SM OVC060
FM070100 31005KT P6SM BKN045
FM070300 34010KT P6SM SCT060

Example: see airport list